METAR Data
IDs: Format: Raw Decoded Include TAF

Data at: 1531 UTC 18 Aug 2019

PAKW 181453Z AUTO VRB04KT 10SM BKN070 10/06 A2958 RMK SLP015 T01000061 52005 TSNO VIA AUTODIAL
PAKW 181353Z AUTO 05010G15KT 10SM BKN048 09/06 A2957 RMK SLP014 T00940061 TSNO VIA AUTODIAL
PAKW 181253Z AUTO VRB06KT 10SM FEW030 OVC040 10/08 A2956 RMK SLP011 T01000078 TSNO VIA AUTODIAL
PAKW 181053Z AUTO VRB05KT 10SM OVC025 11/10 A2955 RMK RAE17 SLP005 P0000 T01060100 TSNO VIA AUTODIAL
PAKW 181006Z AUTO 04011G17KT 10SM -RA FEW019 OVC027 11/10 A2954 RMK P0000 T01110100 TSNO VIA AUTODIAL
PAKW 180853Z AUTO 04010KT 10SM FEW020 OVC029 12/12 A2953 RMK RAE30 SLP000 P0000 60003 T01220122 401610122 55002 TSNO VIA AUTODIAL
PAKW 180753Z AUTO 04006KT 10SM -RA SCT021 OVC027 13/13 A2953 RMK RAE07B24 SLP999 P0000 T01330128 TSNO VIA AUTODIAL
PAKW 180706Z AUTO 00000KT 10SM -RA FEW004 SCT008 OVC017 14/14 A2954 RMK P0000 T01390139 TSNO VIA AUTODIAL
PAKW 180653Z AUTO VRB03KT 5SM -RA BR BKN006 OVC013 14/14 A2954 RMK SLP003 P0003 T01440144 TSNO VIA AUTODIAL
PAKW 180651Z AUTO VRB03KT 4SM -RA BR BKN006 OVC013 14/14 A2954 RMK P0003 TSNO VIA AUTODIAL
PAKW 180616Z AUTO 20004KT 2SM RA BR OVC009 14/14 A2954 RMK P0001 T01440144 TSNO VIA AUTODIAL
PAKW 180601Z AUTO 19004KT 3SM -RA BR BKN009 OVC013 14/14 A2954 RMK CIG 007V011 P0000 T01440144 TSNO VIA AUTODIAL
PAKW 180553Z AUTO 20005KT 3SM -RA BR BKN011 OVC015 14/14 A2954 RMK SLP002 P0010 60014 T01440144 10150 20144 56018 TSNO VIA AUTODIAL
PAKW 180546Z AUTO 16007KT 3SM -RA BR BKN013 OVC017 14/14 A2954 RMK P0009 T01440144 TSNO VIA AUTODIAL
PAKW 180536Z AUTO 21006KT 2 1/2SM -RA BR BKN013 OVC018 14/14 A2954 RMK P0009 T01440144 TSNO VIA AUTODIAL
PAKW 180527Z AUTO 16004KT 1 3/4SM RA BR FEW013 OVC018 14/14 A2954 RMK P0008 T01440144 TSNO VIA AUTODIAL
PAKW 180518Z AUTO 17005KT 2SM RA BR SCT011 OVC020 14/14 A2955 RMK P0005 T01440144 TSNO VIA AUTODIAL
PAKW 180453Z AUTO 17005KT 2SM RA BR FEW005 OVC011 14/14 A2955 RMK SLP007 P0004 T01440144 TSNO VIA AUTODIAL
PAKW 180451Z AUTO 18004KT 2 1/2SM -RA BR FEW005 OVC011 14/14 A2955 RMK P0003 TSNO VIA AUTODIAL
PAKW 180445Z AUTO 20005KT 3SM -RA BR FEW005 OVC010 14/14 A2956 RMK P0002 T01440144 TSNO VIA AUTODIAL
PAKW 180435Z AUTO 20004KT 2 1/2SM -RA BR SCT006 OVC010 14/14 A2956 RMK P0002 T01440144 TSNO VIA AUTODIAL
PAKW 180428Z AUTO 22003KT 3SM -RA BR BKN006 OVC012 14/14 A2956 RMK P0002 T01440144 TSNO VIA AUTODIAL
PAKW 180421Z AUTO 21005KT 2 1/2SM -RA BR SCT006 BKN010 OVC014 14/14 A2956 RMK P0002 T01440144 TSNO VIA AUTODIAL
PAKW 180409Z AUTO VRB03KT 1 1/2SM -RA BR FEW004 BKN012 OVC019 14/14 A2957 RMK P0001 T01440144 TSNO VIA AUTODIAL
PAKW 180357Z AUTO VRB03KT 1 3/4SM -RA BR BKN014 OVC019 14/14 A2957 RMK P0000 T01440144 TSNO VIA AUTODIAL
PAKW 180353Z AUTO 23003KT 3SM -RA BR BKN014 OVC019 14/14 A2957 RMK RAB01E31B39 SLP013 P0000 T01440144 TSNO VIA AUTODIAL
PAKW 180343Z AUTO VRB03KT 7SM -RA BKN014 OVC021 14/14 A2957 RMK RAB01E31B39 P0000 T01440144 TSNO VIA AUTODIAL
PAKW 180331Z AUTO 18003KT 7SM SCT011 BKN017 OVC022 15/15 A2958 RMK RAB01E31 P0000 T01500150 TSNO VIA AUTODIAL
PAKW 180305Z AUTO 20005KT 10SM -RA BKN014 OVC019 15/15 A2959 RMK RAB01 P0000 T01500150 TSNO VIA AUTODIAL
PAKW 180253Z AUTO 19003KT 10SM OVC015 15/15 A2959 RMK RAB0158E35 SLP020 P0000 60000 T01500150 56024 TSNO VIA AUTODIAL
PAKW 180237Z AUTO 18003KT 10SM BKN015 OVC019 15/15 A2960 RMK RAB0158E35 P0000 T01500150 TSNO VIA AUTODIAL
PAKW 180220Z AUTO 19005KT 3SM -RA BR FEW008 BKN014 OVC025 15/15 A2960 RMK RAB0158 P0000 T01500150 TSNO VIA AUTODIAL
PAKW 180216Z AUTO 19005KT 2SM -RA BR FEW008 BKN017 OVC025 15/15 A2960 RMK RAB0158 P0000 T01500150 TSNO VIA AUTODIAL
PAKW 180206Z AUTO 19007KT 1 3/4SM -RA BR FEW008 BKN017 OVC025 15/15 A2961 RMK RAB0158 P0000 T01500150 TSNO VIA AUTODIAL
PAKW 180153Z AUTO 20007KT 2 1/2SM BR SCT009 OVC017 15/15 A2961 RMK RAE23 SLP027 P0000 T01500150 TSNO VIA AUTODIAL
PAKW 180151Z AUTO 20006KT 3SM BR SCT009 OVC017 15/15 A2961 RMK RAE23 P0000 TSNO VIA AUTODIAL
PAKW 180110Z AUTO 20007KT 3SM -RA BR FEW007 BKN011 OVC018 15/15 A2963 RMK P0000 T01500150 TSNO VIA AUTODIAL
PAKW 180053Z AUTO 20009KT 2 1/2SM -RA BR FEW006 BKN012 OVC018 15/15 A2964 RMK VIS 1 1/2V4 SLP037 P0000 T01500150 TSNO VIA AUTODIAL
PAKW 180039Z AUTO 20007KT 2 1/2SM -RA BR SCT006 OVC012 15/15 A2964 RMK P0000 T01500150 TSNO VIA AUTODIAL
PAKW 180032Z AUTO 20008KT 2SM -RA BR FEW006 BKN010 OVC020 15/15 A2965 RMK P0000 T01500150 TSNO VIA AUTODIAL
PAKW 180025Z AUTO 20009KT 1 3/4SM -RA BR FEW006 OVC012 15/15 A2965 RMK P0000 T01500150 TSNO VIA AUTODIAL
PAKW 180019Z AUTO 20007KT 2 1/2SM -RA BR BKN009 OVC017 15/15 A2965 RMK P0000 T01500150 TSNO VIA AUTODIAL
PAKW 180017Z AUTO 20008KT 3SM -RA BR FEW007 BKN011 OVC017 15/15 A2965 RMK P0000 T01500150 TSNO VIA AUTODIAL
PAKW 180008Z AUTO 20007KT 7SM -RA OVC010 15/14 A2966 RMK P0000 T01500144 TSNO VIA AUTODIAL
PAKW 172353Z AUTO 20008KT 9SM -RA OVC012 15/15 A2966 RMK RAE03B42 SLP044 P0000 60000 T01500150 10156 20150 56015 TSNO VIA AUTODIAL
PAKW 172330Z AUTO 21009KT 10SM FEW009 OVC014 15/14 A2967 RMK RAE03 P0000 T01500144 TSNO VIA AUTODIAL
PAKW 172318Z AUTO 20006KT 10SM BKN009 OVC020 15/15 A2967 RMK RAE03 P0000 T01500150 TSNO VIA AUTODIAL
PAKW 172253Z AUTO 20008KT 4SM -RA BR SCT007 OVC013 15/15 A2967 RMK RAB18E40B53 SLP047 P0000 T01500150 TSNO VIA AUTODIAL
PAKW 172248Z AUTO 20008KT 9SM SCT007 OVC013 15/15 A2967 RMK RAB18E40 P0000 TSNO VIA AUTODIAL
PAKW 172234Z AUTO 20008KT 3SM -RA BR BKN007 BKN013 OVC021 15/15 A2969 RMK RAB18 CIG 005V012 P0000 T01500150 TSNO VIA AUTODIAL
PAKW 172226Z AUTO 22006KT 2 1/2SM -RA BR SCT006 BKN013 OVC027 15/15 A2969 RMK RAB18 P0000 T01500150 TSNO VIA AUTODIAL
PAKW 172153Z AUTO 20007KT 7SM SCT005 SCT014 OVC026 15/15 A2971 RMK RAE00B11E49 SLP059 P0000 T01500150 TSNO VIA AUTODIAL
PAKW 172151Z AUTO 20006KT 6SM BR SCT005 BKN014 OVC024 15/15 A2971 RMK RAE00B11E49 P0000 TSNO VIA AUTODIAL
PAKW 172143Z AUTO 20008KT 4SM -RA BR SCT005 BKN010 OVC028 15/15 A2971 RMK RAE00B11 P0000 T01500150 TSNO VIA AUTODIAL
PAKW 172134Z AUTO 20009KT 2SM -RA BR FEW004 BKN013 OVC021 15/15 A2972 RMK RAE00B11 P0000 T01500150 TSNO VIA AUTODIAL
PAKW 172124Z AUTO 21009KT 1 3/4SM -RA BR FEW004 BKN019 OVC024 15/15 A2972 RMK RAE00B11 P0000 T01500150 TSNO VIA AUTODIAL
PAKW 172117Z AUTO 21010KT 2SM -RA BR FEW004 BKN019 OVC023 15/15 A2972 RMK RAE00B11 P0000 T01500150 TSNO VIA AUTODIAL
PAKW 172106Z AUTO 21006KT 3SM BR SCT005 BKN023 OVC028 15/15 A2973 RMK RAE00 P0000 T01500150 TSNO VIA AUTODIAL
PAKW 172053Z AUTO 20006KT 2 1/2SM -RA BR SCT005 BKN019 OVC027 15/15 A2973 RMK RAB18 SLP067 P0000 60000 T01500150 56024 TSNO VIA AUTODIAL
PAKW 172051Z AUTO 20006KT 2SM -RA BR SCT005 BKN011 OVC027 15/15 A2973 RMK RAB18 P0000 TSNO VIA AUTODIAL
PAKW 172046Z AUTO 21007KT 1 3/4SM -RA BR SCT006 BKN011 OVC026 15/15 A2974 RMK RAB18 P0000 T01500150 TSNO VIA AUTODIAL
PAKW 172039Z AUTO 19007KT 1 3/4SM -RA BR FEW006 BKN010 OVC026 15/15 A2974 RMK RAB18 P0000 T01500150 TSNO VIA AUTODIAL
PAKW 172022Z AUTO 19008KT 2 1/2SM -RA BR SCT009 BKN014 OVC031 15/15 A2975 RMK RAB18 P0000 T01500150 TSNO VIA AUTODIAL
PAKW 171948Z AUTO 21007KT 10SM FEW006 BKN022 OVC042 16/16 A2975 RMK RAB02E28 SLP074 P0000 T01560156 TSNO VIA AUTODIAL
PAKW 171947Z AUTO 21008KT 10SM FEW006 BKN022 OVC042 16/15 A2975 RMK RAB02E28 P0000 TSNO VIA AUTODIAL
PAKW 171933Z AUTO 20010KT 5SM BR BKN006 BKN010 OVC036 15/15 A2976 RMK RAB02E28 P0000 T01500150 TSNO VIA AUTODIAL
PAKW 171923Z AUTO 20008KT 3SM -RA BR BKN004 BKN008 OVC026 15/15 A2976 RMK RAB02 P0000 T01500150 TSNO VIA AUTODIAL
PAKW 171921Z AUTO 20007KT 2SM -RA BR SCT004 BKN008 OVC026 15/15 A2976 RMK RAB02 P0000 T01500150 TSNO VIA AUTODIAL
PAKW 171913Z AUTO 23009G14KT 2 1/2SM -RA BR SCT006 BKN013 OVC020 15/15 A2977 RMK RAB02 P0000 T01500150 TSNO VIA AUTODIAL
PAKW 171853Z AUTO 21009KT 10SM FEW006 SCT013 OVC022 15/15 A2977 RMK RAB03E14 SLP082 P0000 T01500150 TSNO VIA AUTODIAL
PAKW 171817Z AUTO 21008KT 6SM BR SCT005 BKN025 OVC037 15/15 A2979 RMK RAB03E14 P0000 T01500150 TSNO VIA AUTODIAL
PAKW 171808Z AUTO 21008KT 2 1/2SM -RA BR SCT005 BKN020 OVC025 15/15 A2980 RMK VIS 1 1/4V5 RAB03 P0000 T01500150 TSNO VIA AUTODIAL
PAKW 171753Z AUTO 19007KT 9SM FEW005 BKN016 OVC028 15/15 A2980 RMK RAB18E39 SLP092 P0000 60005 T01500150 10150 20144 56022 TSNO VIA AUTODIAL
PAKW 171739Z AUTO 21007KT 6SM BR FEW005 BKN016 OVC030 15/15 A2981 RMK RAB18E39 P0000 T01500150 TSNO VIA AUTODIAL
PAKW 171716Z AUTO 19006KT 7SM FEW006 OVC011 15/15 A2982 RMK T01500150 TSNO VIA AUTODIAL
PAKW 171702Z AUTO 19008KT 10SM FEW006 BKN009 OVC021 15/15 A2981 RMK CIG 008V011 T01500150 TSNO VIA AUTODIAL
PAKW 171653Z AUTO 20007KT 9SM SCT006 BKN010 OVC021 14/14 A2982 RMK RAB06E16B20E37 CIG 007V012 SLP096 P0000 T01440144 TSNO VIA AUTODIAL
PAKW 171651Z AUTO 19007KT 6SM BR SCT006 BKN010 OVC023 14/14 A2982 RMK RAB06E16B20E37 CIG 007V012 P0000 TSNO VIA AUTODIAL
PAKW 171635Z AUTO 21007KT 3SM -RA BR BKN007 BKN010 OVC013 14/14 A2983 RMK RAB06E16B20 P0000 T01440144 TSNO VIA AUTODIAL
PAKW 171628Z AUTO 20007KT 1 1/2SM -RA BR BKN005 OVC013 14/14 A2983 RMK RAB06E16B20 P0000 T01440144 TSNO VIA AUTODIAL
PAKW 171619Z AUTO 21007KT 2 1/2SM BR BKN007 OVC013 14/14 A2984 RMK RAB06E16 P0000 T01440144 TSNO VIA AUTODIAL
PAKW 171605Z AUTO 22007KT 4SM BR BKN012 OVC020 14/14 A2984 RMK T01440144 TSNO VIA AUTODIAL
PAKW 171453Z AUTO 19005KT 10SM BKN008 BKN012 OVC025 15/15 A2987 RMK RAB1357E25 CIG 006V011 SLP113 P0000 60005 T01500150 56026 TSNO VIA AUTODIAL
PAKW 171353Z AUTO 19004KT 10SM BKN006 OVC011 14/14 A2990 RMK RAE50 CIG 004V009 SLP123 P0003 T01440144 TSNO VIA AUTODIAL
PAKW 171341Z AUTO 20005KT 9SM -RA OVC006 14/14 A2990 RMK CIG 004V009 P0003 T01440144 TSNO VIA AUTODIAL
PAKW 171320Z AUTO 22005KT 5SM -RA BR BKN003 OVC008 15/15 A2991 RMK P0002 T01500150 TSNO VIA AUTODIAL
PAKW 171306Z AUTO 00000KT 2SM RA BR OVC003 15/15 A2991 RMK P0002 T01500150 TSNO VIA AUTODIAL
PAKW 171253Z AUTO 00000KT 3SM -RA BR OVC003 15/15 A2991 RMK RAB02 SLP129 P0002 T01500150 TSNO VIA AUTODIAL
PAKW 171251Z AUTO 00000KT 3SM -RA BR OVC003 15/15 A2992 RMK RAB02 P0002 TSNO VIA AUTODIAL
PAKW 171221Z AUTO 00000KT 2 1/2SM -RA BR OVC006 15/15 A2993 RMK RAB02 P0000 T01500150 TSNO VIA AUTODIAL
PAKW 171153Z AUTO VRB04KT 10SM BKN005 OVC010 15/15 A2994 RMK CIG 003V007 SLP139 60000 T01500150 10156 20150 58020 TSNO VIA AUTODIAL
PAKW 171151Z AUTO VRB03KT 10SM BKN005 OVC010 15/15 A2994 RMK CIG 003V007 TSNO VIA AUTODIAL
PAKW 171146Z AUTO 00000KT 10SM BKN004 OVC012 15/15 A2994 RMK CIG 003V009 T01500150 TSNO VIA AUTODIAL
PAKW 171108Z AUTO 00000KT 9SM BKN006 OVC009 15/15 A2996 RMK T01500150 TSNO VIA AUTODIAL
PAKW 171053Z AUTO 00000KT 10SM OVC004 15/15 A2997 RMK SLP148 T01500150 TSNO VIA AUTODIAL
PAKW 170953Z AUTO 00000KT 3SM BR OVC004 15/15 A2999 RMK RAB02E23 SLP155 P0000 T01500150 TSNO VIA AUTODIAL
PAKW 170927Z AUTO 00000KT 6SM BR OVC005 15/15 A3000 RMK RAB02E23 P0000 T01500150 TSNO VIA AUTODIAL
PAKW 170916Z AUTO 21004KT 4SM -RA BR OVC004 15/15 A3000 RMK RAB02 P0000 T01500150 TSNO VIA AUTODIAL
PAKW 170853Z AUTO 00000KT 4SM BR OVC005 15/15 A3000 RMK SLP159 T01500150 402000139 58019 TSNO VIA AUTODIAL
PAKW 170851Z AUTO 00000KT 5SM BR OVC005 15/15 A3000 RMK TSNO VIA AUTODIAL
PAKW 170753Z AUTO VRB03KT 10SM OVC004 15/15 A3003 RMK SLP167 T01500150 TSNO VIA AUTODIAL
PAKW 170723Z AUTO 21004KT 10SM OVC004 15/15 A3004 RMK T01500150 TSNO VIA AUTODIAL
PAKW 170653Z AUTO 19005KT 10SM OVC006 16/15 A3004 RMK SLP171 T01560150 TSNO VIA AUTODIAL
PAKW 170615Z AUTO 17005KT 10SM BKN005 OVC037 16/16 A3005 RMK CIG 004V008 T01560156 TSNO VIA AUTODIAL
PAKW 170553Z AUTO 19004KT 10SM FEW004 OVC036 16/16 A3006 RMK SLP178 T01560156 10178 20156 58015 TSNO VIA AUTODIAL
PAKW 170453Z AUTO 18004KT 10SM FEW008 OVC039 16/15 A3008 RMK SLP184 T01560150 TSNO VIA AUTODIAL
PAKW 170443Z AUTO 18005KT 10SM FEW008 OVC039 16/15 A3008 RMK T01560150 TSNO VIA AUTODIAL
PAKW 170353Z AUTO VRB04KT 10SM SCT011 OVC042 16/15 A3009 RMK SLP188 T01610150 TSNO VIA AUTODIAL